F/V Jumila — FIDA — position and weather

sailwx.info

Track history (hours):
 
Tides and Currents Weather Stations Pressure Air Temp Water Temp Dewpoint Dewpoint Depression Visibility Wind Speed Wind Dir Waves Ship Positions

F/V Jumila

Last reported at 2018-Jun-23 06:00 UTC. Time now 2018-Jun-23 06:18 UTC.
Position N 47°28' W 003°50'.

Length 14 m; draft 2.6 m.

Type: Fishing. MMSI: 228020600.

Date/timePositionNaut miles runAvg speedWind from/ knotsBaromVisibWave heightAir tempDewpointWater temp
2018-Jun-23 06:00N 47°28' W 003°50'2 2.1
2018-Jun-23 05:11N 47°30' W 003°49'1 3.2
2018-Jun-23 05:00N 47°30' W 003°49'1 2.9
2018-Jun-23 04:30N 47°31' W 003°50'2 3.6
2018-Jun-23 04:00N 47°32' W 003°48'2 3.8
2018-Jun-23 03:30N 47°33' W 003°46'1 1.1
2018-Jun-23 03:00N 47°34' W 003°46'2 5.0
2018-Jun-23 02:30N 47°35' W 003°42'4 7.6
2018-Jun-23 02:00N 47°37' W 003°38'4 7.4
2018-Jun-23 01:30N 47°39' W 003°33'4 7.6
2018-Jun-23 01:00N 47°40' W 003°28'4 7.4
2018-Jun-23 00:30N 47°42' W 003°23'2 4.1
2018-Jun-23 00:00N 47°44' W 003°22'0 0.3
2018-Jun-22 23:30N 47°44' W 003°22'3 6.5
2018-Jun-22 23:00N 47°41' W 003°25'3 7.0
2018-Jun-22 22:30N 47°40' W 003°30'3 6.9
2018-Jun-22 22:00N 47°38' W 003°34'4 7.3
2018-Jun-22 21:30N 47°36' W 003°38'1 2.9
2018-Jun-22 21:00N 47°35' W 003°40'1 2.4
2018-Jun-22 20:30N 47°35' W 003°42'2 3.5
2018-Jun-22 20:00N 47°34' W 003°43'2 3.4
2018-Jun-22 19:30N 47°33' W 003°45'2 3.2
2018-Jun-22 19:00N 47°32' W 003°47'2 3.5
2018-Jun-22 18:30N 47°31' W 003°48'2 3.4
2018-Jun-22 18:00N 47°30' W 003°50'2 3.4
2018-Jun-22 17:30N 47°28' W 003°52'1 1.9
2018-Jun-22 17:00N 47°28' W 003°50'2 2.1
2018-Jun-22 16:04N 47°30' W 003°49'0 3.5
2018-Jun-22 16:00N 47°30' W 003°49'2 3.3
2018-Jun-22 15:30N 47°29' W 003°51'2 3.2
2018-Jun-22 15:00N 47°28' W 003°53'2 1.9
2018-Jun-22 13:41N 47°26' W 003°51'2 1.4
2018-Jun-22 11:52N 47°29' W 003°52'1 2.2
2018-Jun-22 11:22N 47°28' W 003°51'1 3.2
2018-Jun-22 11:00N 47°27' W 003°51'2 0.8
2018-Jun-22 08:47N 47°29' W 003°51'1 3.1
2018-Jun-22 08:30N 47°28' W 003°52'2 3.3
2018-Jun-22 07:57N 47°27' W 003°53'2 3.4
2018-Jun-22 07:28N 47°25' W 003°54'3 1.3
2018-Jun-22 05:24N 47°28' W 003°52'2 3.3
2018-Jun-22 04:42N 47°30' W 003°51'1 3.4
2018-Jun-22 04:25N 47°31' W 003°51'2 3.6
2018-Jun-22 03:59N 47°32' W 003°49'2 3.5
2018-Jun-22 03:24N 47°33' W 003°47'1 2.1
2018-Jun-22 03:00N 47°34' W 003°46'4 7.8
2018-Jun-22 02:30N 47°36' W 003°41'4 8.3
2018-Jun-22 02:00N 47°38' W 003°36'4 8.1
2018-Jun-22 01:30N 47°40' W 003°31'4 8.2
2018-Jun-22 01:00N 47°41' W 003°25'4 6.8
2018-Jun-22 00:30N 47°44' W 003°22'0 0.7
2018-Jun-22 00:00N 47°43' W 003°22'4 7.2
2018-Jun-21 23:30N 47°41' W 003°26'4 8.3
2018-Jun-21 23:00N 47°40' W 003°32'4 7.5
2018-Jun-21 22:30N 47°38' W 003°36'4 7.1
2018-Jun-21 22:00N 47°35' W 003°40'2 4.0
2018-Jun-21 21:31N 47°34' W 003°42'2 3.1
2018-Jun-21 21:00N 47°33' W 003°45'2 3.1
2018-Jun-21 20:31N 47°33' W 003°47'2 3.0
2018-Jun-21 20:00N 47°32' W 003°48'2 3.1
2018-Jun-21 19:30N 47°30' W 003°49'1 3.1
2018-Jun-21 19:00N 47°29' W 003°50'2 3.0
2018-Jun-21 18:29N 47°28' W 003°52'2 3.3
2018-Jun-21 18:01N 47°27' W 003°53'2 3.6
2018-Jun-21 17:30N 47°25' W 003°54'1 2.4
2018-Jun-21 16:55N 47°26' W 003°53'2 3.0
2018-Jun-21 16:21N 47°25' W 003°51'1 3.2
2018-Jun-21 16:00N 47°24' W 003°52'  
2018-Jun-16 02:34N 47°44' W 003°22'0 0.0
2018-Jun-16 02:30N 47°44' W 003°22'0 0.0
2018-Jun-16 01:59N 47°44' W 003°22'0 0.0
2018-Jun-16 01:30N 47°44' W 003°22'0 0.0
2018-Jun-16 01:00N 47°44' W 003°22'0 0.0
2018-Jun-16 00:30N 47°44' W 003°22'0 0.0
2018-Jun-16 00:00N 47°44' W 003°22'1 2.9
2018-Jun-15 23:30N 47°42' W 003°22'4 8.4
2018-Jun-15 23:00N 47°40' W 003°28'4 8.8
2018-Jun-15 22:30N 47°39' W 003°34'4 8.5
2018-Jun-15 22:00N 47°36' W 003°39'4 8.5
2018-Jun-15 21:30N 47°34' W 003°44'4 6.6
2018-Jun-15 20:59N 47°32' W 003°48'1 3.0
2018-Jun-15 20:30N 47°31' W 003°50'2 3.2
2018-Jun-15 19:59N 47°31' W 003°53'2 3.1
2018-Jun-15 19:30N 47°30' W 003°55'2 3.2
2018-Jun-15 18:59N 47°29' W 003°57'3 0.1
2018-Jun-14 23:01N 47°27' W 003°56'1 3.2
2018-Jun-14 22:35N 47°26' W 003°54'0 3.3
2018-Jun-14 22:30N 47°26' W 003°53'2 3.6
2018-Jun-14 21:55N 47°26' W 003°50'5 2.9
2018-Jun-14 20:17N 47°23' W 003°45'1 3.2
2018-Jun-14 20:00N 47°22' W 003°45'2 3.1
2018-Jun-14 19:22N 47°20' W 003°46'2 3.0
2018-Jun-14 18:48N 47°19' W 003°46'1 3.0
2018-Jun-14 18:29N 47°18' W 003°46'2 2.9
2018-Jun-14 17:57N 47°16' W 003°46'1 0.3
2018-Jun-14 14:49N 47°15' W 003°46'4 1.1
2018-Jun-14 10:43N 47°19' W 003°43'2 7.6
2018-Jun-14 10:28N 47°20' W 003°41'4 8.2
2018-Jun-14 10:00N 47°23' W 003°37'4 8.7
2018-Jun-14 09:30N 47°26' W 003°33'4 8.8
2018-Jun-14 09:00N 47°30' W 003°29'4 8.9
2018-Jun-14 08:30N 47°33' W 003°25'4 8.9
2018-Jun-14 08:00N 47°38' W 003°23'5 9.6
2018-Jun-14 07:30N 47°42' W 003°22'1 2.5
2018-Jun-14 07:00N 47°44' W 003°22'0 0.0
2018-Jun-14 06:30N 47°44' W 003°22'0 0.0
2018-Jun-14 06:00N 47°44' W 003°22'0 0.0
2018-Jun-14 05:30N 47°44' W 003°22'0 0.0
2018-Jun-14 04:59N 47°44' W 003°22'0 0.0
2018-Jun-14 04:30N 47°44' W 003°22'0 0.0
2018-Jun-14 04:00N 47°44' W 003°22'0 0.2
2018-Jun-14 03:30N 47°44' W 003°22'0 0.0
2018-Jun-14 03:00N 47°44' W 003°22'4 8.6
2018-Jun-14 02:30N 47°40' W 003°23'4 8.3
2018-Jun-14 02:00N 47°35' W 003°23'4 8.9
2018-Jun-14 01:30N 47°32' W 003°28'4 9.0
2018-Jun-14 01:00N 47°28' W 003°32'4 8.8
2018-Jun-14 00:30N 47°25' W 003°36'4 8.7
2018-Jun-14 00:00N 47°22' W 003°40'3 6.3
2018-Jun-13 23:30N 47°19' W 003°42'4 1.9
2018-Jun-13 21:25N 47°22' W 003°45'2 2.6
2018-Jun-13 20:29N 47°20' W 003°43'2 3.2
2018-Jun-13 19:59N 47°19' W 003°43'2 3.1
2018-Jun-13 19:28N 47°17' W 003°45'2 3.1
2018-Jun-13 18:59N 47°16' W 003°46'8 1.8
2018-Jun-13 14:43N 47°09' W 003°42'1 3.3
2018-Jun-13 14:22N 47°08' W 003°41'2 1.1
2018-Jun-13 12:43N 47°08' W 003°44'4 1.2
2018-Jun-13 09:43N 47°10' W 003°48'1 3.4
2018-Jun-13 09:30N 47°10' W 003°48'1 0.8
2018-Jun-13 08:12N 47°09' W 003°47'0 0.9
2018-Jun-13 08:00N 47°09' W 003°47'  
Track history (hours):
 
Tides and Currents Weather Stations Pressure Air Temp Water Temp Dewpoint Dewpoint Depression Visibility Wind Speed Wind Dir Waves Ship Positions

F/V Jumila

Last reported at 2018-Jun-23 06:00 UTC. Time now 2018-Jun-23 06:18 UTC.
Position N 47°28' W 003°50'.

Length 14 m; draft 2.6 m.

Type: Fishing. MMSI: 228020600.

Date/timePositionNaut miles runAvg speedWind from/ knotsBaromVisibWave heightAir tempDewpointWater temp
2018-Jun-23 06:00N 47°28' W 003°50'2 2.1
2018-Jun-23 05:11N 47°30' W 003°49'1 3.2
2018-Jun-23 05:00N 47°30' W 003°49'1 2.9
2018-Jun-23 04:30N 47°31' W 003°50'2 3.6
2018-Jun-23 04:00N 47°32' W 003°48'2 3.8
2018-Jun-23 03:30N 47°33' W 003°46'1 1.1
2018-Jun-23 03:00N 47°34' W 003°46'2 5.0
2018-Jun-23 02:30N 47°35' W 003°42'4 7.6
2018-Jun-23 02:00N 47°37' W 003°38'4 7.4
2018-Jun-23 01:30N 47°39' W 003°33'4 7.6
2018-Jun-23 01:00N 47°40' W 003°28'4 7.4
2018-Jun-23 00:30N 47°42' W 003°23'2 4.1
2018-Jun-23 00:00N 47°44' W 003°22'0 0.3
2018-Jun-22 23:30N 47°44' W 003°22'3 6.5
2018-Jun-22 23:00N 47°41' W 003°25'3 7.0
2018-Jun-22 22:30N 47°40' W 003°30'3 6.9
2018-Jun-22 22:00N 47°38' W 003°34'4 7.3
2018-Jun-22 21:30N 47°36' W 003°38'1 2.9
2018-Jun-22 21:00N 47°35' W 003°40'1 2.4
2018-Jun-22 20:30N 47°35' W 003°42'2 3.5
2018-Jun-22 20:00N 47°34' W 003°43'2 3.4
2018-Jun-22 19:30N 47°33' W 003°45'2 3.2
2018-Jun-22 19:00N 47°32' W 003°47'2 3.5
2018-Jun-22 18:30N 47°31' W 003°48'2 3.4
2018-Jun-22 18:00N 47°30' W 003°50'2 3.4
2018-Jun-22 17:30N 47°28' W 003°52'1 1.9
2018-Jun-22 17:00N 47°28' W 003°50'2 2.1
2018-Jun-22 16:04N 47°30' W 003°49'0 3.5
2018-Jun-22 16:00N 47°30' W 003°49'2 3.3
2018-Jun-22 15:30N 47°29' W 003°51'2 3.2
2018-Jun-22 15:00N 47°28' W 003°53'2 1.9
2018-Jun-22 13:41N 47°26' W 003°51'2 1.4
2018-Jun-22 11:52N 47°29' W 003°52'1 2.2
2018-Jun-22 11:22N 47°28' W 003°51'1 3.2
2018-Jun-22 11:00N 47°27' W 003°51'2 0.8
2018-Jun-22 08:47N 47°29' W 003°51'1 3.1
2018-Jun-22 08:30N 47°28' W 003°52'2 3.3
2018-Jun-22 07:57N 47°27' W 003°53'2 3.4
2018-Jun-22 07:28N 47°25' W 003°54'3 1.3
2018-Jun-22 05:24N 47°28' W 003°52'2 3.3
2018-Jun-22 04:42N 47°30' W 003°51'1 3.4
2018-Jun-22 04:25N 47°31' W 003°51'2 3.6
2018-Jun-22 03:59N 47°32' W 003°49'2 3.5
2018-Jun-22 03:24N 47°33' W 003°47'1 2.1
2018-Jun-22 03:00N 47°34' W 003°46'4 7.8
2018-Jun-22 02:30N 47°36' W 003°41'4 8.3
2018-Jun-22 02:00N 47°38' W 003°36'4 8.1
2018-Jun-22 01:30N 47°40' W 003°31'4 8.2
2018-Jun-22 01:00N 47°41' W 003°25'4 6.8
2018-Jun-22 00:30N 47°44' W 003°22'0 0.7
2018-Jun-22 00:00N 47°43' W 003°22'4 7.2
2018-Jun-21 23:30N 47°41' W 003°26'4 8.3
2018-Jun-21 23:00N 47°40' W 003°32'4 7.5
2018-Jun-21 22:30N 47°38' W 003°36'4 7.1
2018-Jun-21 22:00N 47°35' W 003°40'2 4.0
2018-Jun-21 21:31N 47°34' W 003°42'2 3.1
2018-Jun-21 21:00N 47°33' W 003°45'2 3.1
2018-Jun-21 20:31N 47°33' W 003°47'2 3.0
2018-Jun-21 20:00N 47°32' W 003°48'2 3.1
2018-Jun-21 19:30N 47°30' W 003°49'1 3.1
2018-Jun-21 19:00N 47°29' W 003°50'2 3.0
2018-Jun-21 18:29N 47°28' W 003°52'2 3.3
2018-Jun-21 18:01N 47°27' W 003°53'2 3.6
2018-Jun-21 17:30N 47°25' W 003°54'1 2.4
2018-Jun-21 16:55N 47°26' W 003°53'2 3.0
2018-Jun-21 16:21N 47°25' W 003°51'1 3.2
2018-Jun-21 16:00N 47°24' W 003°52'  
2018-Jun-16 02:34N 47°44' W 003°22'0 0.0
2018-Jun-16 02:30N 47°44' W 003°22'0 0.0
2018-Jun-16 01:59N 47°44' W 003°22'0 0.0
2018-Jun-16 01:30N 47°44' W 003°22'0 0.0
2018-Jun-16 01:00N 47°44' W 003°22'0 0.0
2018-Jun-16 00:30N 47°44' W 003°22'0 0.0
2018-Jun-16 00:00N 47°44' W 003°22'1 2.9
2018-Jun-15 23:30N 47°42' W 003°22'4 8.4
2018-Jun-15 23:00N 47°40' W 003°28'4 8.8
2018-Jun-15 22:30N 47°39' W 003°34'4 8.5
2018-Jun-15 22:00N 47°36' W 003°39'4 8.5
2018-Jun-15 21:30N 47°34' W 003°44'4 6.6
2018-Jun-15 20:59N 47°32' W 003°48'1 3.0
2018-Jun-15 20:30N 47°31' W 003°50'2 3.2
2018-Jun-15 19:59N 47°31' W 003°53'2 3.1
2018-Jun-15 19:30N 47°30' W 003°55'2 3.2
2018-Jun-15 18:59N 47°29' W 003°57'3 0.1
2018-Jun-14 23:01N 47°27' W 003°56'1 3.2
2018-Jun-14 22:35N 47°26' W 003°54'0 3.3
2018-Jun-14 22:30N 47°26' W 003°53'2 3.6
2018-Jun-14 21:55N 47°26' W 003°50'5 2.9
2018-Jun-14 20:17N 47°23' W 003°45'1 3.2
2018-Jun-14 20:00N 47°22' W 003°45'2 3.1
2018-Jun-14 19:22N 47°20' W 003°46'2 3.0
2018-Jun-14 18:48N 47°19' W 003°46'1 3.0
2018-Jun-14 18:29N 47°18' W 003°46'2 2.9
2018-Jun-14 17:57N 47°16' W 003°46'1 0.3
2018-Jun-14 14:49N 47°15' W 003°46'4 1.1
2018-Jun-14 10:43N 47°19' W 003°43'2 7.6
2018-Jun-14 10:28N 47°20' W 003°41'4 8.2
2018-Jun-14 10:00N 47°23' W 003°37'4 8.7
2018-Jun-14 09:30N 47°26' W 003°33'4 8.8
2018-Jun-14 09:00N 47°30' W 003°29'4 8.9
2018-Jun-14 08:30N 47°33' W 003°25'4 8.9
2018-Jun-14 08:00N 47°38' W 003°23'5 9.6
2018-Jun-14 07:30N 47°42' W 003°22'1 2.5
2018-Jun-14 07:00N 47°44' W 003°22'0 0.0
2018-Jun-14 06:30N 47°44' W 003°22'0 0.0
2018-Jun-14 06:00N 47°44' W 003°22'0 0.0
2018-Jun-14 05:30N 47°44' W 003°22'0 0.0
2018-Jun-14 04:59N 47°44' W 003°22'0 0.0
2018-Jun-14 04:30N 47°44' W 003°22'0 0.0
2018-Jun-14 04:00N 47°44' W 003°22'0 0.2
2018-Jun-14 03:30N 47°44' W 003°22'0 0.0
2018-Jun-14 03:00N 47°44' W 003°22'4 8.6
2018-Jun-14 02:30N 47°40' W 003°23'4 8.3
2018-Jun-14 02:00N 47°35' W 003°23'4 8.9
2018-Jun-14 01:30N 47°32' W 003°28'4 9.0
2018-Jun-14 01:00N 47°28' W 003°32'4 8.8
2018-Jun-14 00:30N 47°25' W 003°36'4 8.7
2018-Jun-14 00:00N 47°22' W 003°40'3 6.3
2018-Jun-13 23:30N 47°19' W 003°42'4 1.9
2018-Jun-13 21:25N 47°22' W 003°45'2 2.6
2018-Jun-13 20:29N 47°20' W 003°43'2 3.2
2018-Jun-13 19:59N 47°19' W 003°43'2 3.1
2018-Jun-13 19:28N 47°17' W 003°45'2 3.1
2018-Jun-13 18:59N 47°16' W 003°46'8 1.8
2018-Jun-13 14:43N 47°09' W 003°42'1 3.3
2018-Jun-13 14:22N 47°08' W 003°41'2 1.1
2018-Jun-13 12:43N 47°08' W 003°44'4 1.2
2018-Jun-13 09:43N 47°10' W 003°48'1 3.4
2018-Jun-13 09:30N 47°10' W 003°48'1 0.8
2018-Jun-13 08:12N 47°09' W 003°47'0 0.9
2018-Jun-13 08:00N 47°09' W 003°47'  

Dump ship's entire track history